sensor_id;sensor_type;location;lat;lon;timestamp;temperature;humidity
9828;DHT22;4953;48.952;9.442;2022-09-17T04:00:31;10.20;99.90
9828;DHT22;4953;48.952;9.442;2022-09-17T04:02:58;10.10;99.90
9828;DHT22;4953;48.952;9.442;2022-09-17T04:05:24;10.20;99.90
9828;DHT22;4953;48.952;9.442;2022-09-17T04:07:51;10.10;99.90
9828;DHT22;4953;48.952;9.442;2022-09-17T04:10:18;10.10;99.90
9828;DHT22;4953;48.952;9.442;2022-09-17T04:12:45;10.10;99.90
9828;DHT22;4953;48.952;9.442;2022-09-17T04:15:12;10.10;99.90
9828;DHT22;4953;48.952;9.442;2022-09-17T04:17:40;10.10;99.90
9828;DHT22;4953;48.952;9.442;2022-09-17T04:20:07;10.10;99.90
9828;DHT22;4953;48.952;9.442;2022-09-17T04:22:34;10.00;99.90
9828;DHT22;4953;48.952;9.442;2022-09-17T04:25:01;10.00;99.90
9828;DHT22;4953;48.952;9.442;2022-09-17T04:27:27;9.90;99.90
9828;DHT22;4953;48.952;9.442;2022-09-17T04:29:54;9.90;99.90
9828;DHT22;4953;48.952;9.442;2022-09-17T04:32:21;9.90;99.90
9828;DHT22;4953;48.952;9.442;2022-09-17T04:34:49;9.90;99.90
9828;DHT22;4953;48.952;9.442;2022-09-17T04:37:16;9.90;99.90
9828;DHT22;4953;48.952;9.442;2022-09-17T04:39:44;9.90;99.90
9828;DHT22;4953;48.952;9.442;2022-09-17T04:42:11;9.90;99.90
9828;DHT22;4953;48.952;9.442;2022-09-17T04:44:37;9.90;99.90
9828;DHT22;4953;48.952;9.442;2022-09-17T04:47:04;9.90;99.90
9828;DHT22;4953;48.952;9.442;2022-09-17T04:49:31;10.00;99.90
9828;DHT22;4953;48.952;9.442;2022-09-17T04:51:59;10.00;99.90
9828;DHT22;4953;48.952;9.442;2022-09-17T04:54:26;10.00;99.90
9828;DHT22;4953;48.952;9.442;2022-09-17T04:56:53;9.90;99.90
9828;DHT22;4953;48.952;9.442;2022-09-17T04:59:19;9.90;99.90
9828;DHT22;4953;48.952;9.442;2022-09-17T05:01:46;9.90;99.90
9828;DHT22;4953;48.952;9.442;2022-09-17T05:04:14;9.80;99.90
9828;DHT22;4953;48.952;9.442;2022-09-17T05:06:41;9.90;99.90
9828;DHT22;4953;48.952;9.442;2022-09-17T05:09:09;9.80;99.90
9828;DHT22;4953;48.952;9.442;2022-09-17T05:11:35;9.80;99.90
9828;DHT22;4953;48.952;9.442;2022-09-17T05:14:02;9.80;99.90
9828;DHT22;4953;48.952;9.442;2022-09-17T05:16:29;9.80;99.90
9828;DHT22;4953;48.952;9.442;2022-09-17T05:18:56;9.90;99.90
9828;DHT22;4953;48.952;9.442;2022-09-17T05:21:23;9.80;99.90
9828;DHT22;4953;48.952;9.442;2022-09-17T05:23:49;9.80;99.90
9828;DHT22;4953;48.952;9.442;2022-09-17T05:26:18;9.80;99.90
9828;DHT22;4953;48.952;9.442;2022-09-17T05:28:44;9.80;99.90
9828;DHT22;4953;48.952;9.442;2022-09-17T05:31:11;9.80;99.90
9828;DHT22;4953;48.952;9.442;2022-09-17T05:33:38;9.80;99.90
9828;DHT22;4953;48.952;9.442;2022-09-17T05:36:05;9.80;99.90
9828;DHT22;4953;48.952;9.442;2022-09-17T05:38:32;9.70;99.90
9828;DHT22;4953;48.952;9.442;2022-09-17T05:41:03;9.70;99.90
9828;DHT22;4953;48.952;9.442;2022-09-17T05:43:34;9.80;99.90
9828;DHT22;4953;48.952;9.442;2022-09-17T05:46:02;9.80;99.90
9828;DHT22;4953;48.952;9.442;2022-09-17T05:48:31;9.80;99.90
9828;DHT22;4953;48.952;9.442;2022-09-17T05:50:58;9.80;99.90
9828;DHT22;4953;48.952;9.442;2022-09-17T05:53:24;9.80;99.90
9828;DHT22;4953;48.952;9.442;2022-09-17T05:55:55;9.90;99.90
9828;DHT22;4953;48.952;9.442;2022-09-17T05:58:22;9.80;99.90
9828;DHT22;4953;48.952;9.442;2022-09-17T06:00:51;9.90;99.90
9828;DHT22;4953;48.952;9.442;2022-09-17T06:03:19;9.90;99.90
9828;DHT22;4953;48.952;9.442;2022-09-17T06:05:52;9.80;99.90
9828;DHT22;4953;48.952;9.442;2022-09-17T06:08:19;9.80;99.90
9828;DHT22;4953;48.952;9.442;2022-09-17T06:10:46;9.80;99.90
9828;DHT22;4953;48.952;9.442;2022-09-17T06:13:13;9.80;99.90
9828;DHT22;4953;48.952;9.442;2022-09-17T06:15:40;9.80;99.90
9828;DHT22;4953;48.952;9.442;2022-09-17T06:18:08;9.70;99.90
9828;DHT22;4953;48.952;9.442;2022-09-17T06:20:35;9.70;99.90
9828;DHT22;4953;48.952;9.442;2022-09-17T06:23:02;9.70;99.90
9828;DHT22;4953;48.952;9.442;2022-09-17T06:25:29;9.70;99.90
9828;DHT22;4953;48.952;9.442;2022-09-17T06:27:56;9.70;99.90
9828;DHT22;4953;48.952;9.442;2022-09-17T06:30:23;9.70;99.90
9828;DHT22;4953;48.952;9.442;2022-09-17T06:32:50;9.70;99.90
9828;DHT22;4953;48.952;9.442;2022-09-17T06:35:18;9.70;99.90
9828;DHT22;4953;48.952;9.442;2022-09-17T06:37:45;9.60;99.90
9828;DHT22;4953;48.952;9.442;2022-09-17T06:40:12;9.70;99.90
9828;DHT22;4953;48.952;9.442;2022-09-17T06:42:39;9.70;99.90
9828;DHT22;4953;48.952;9.442;2022-09-17T06:45:07;9.70;99.90
9828;DHT22;4953;48.952;9.442;2022-09-17T06:47:34;9.70;99.90
9828;DHT22;4953;48.952;9.442;2022-09-17T06:50:01;9.70;99.90
9828;DHT22;4953;48.952;9.442;2022-09-17T06:52:29;9.70;99.90
9828;DHT22;4953;48.952;9.442;2022-09-17T06:54:56;9.70;99.90
9828;DHT22;4953;48.952;9.442;2022-09-17T06:57:23;9.70;99.90
9828;DHT22;4953;48.952;9.442;2022-09-17T06:59:49;9.70;99.90
9828;DHT22;4953;48.952;9.442;2022-09-17T07:02:16;9.70;99.90
9828;DHT22;4953;48.952;9.442;2022-09-17T07:04:43;9.70;99.90
9828;DHT22;4953;48.952;9.442;2022-09-17T07:07:12;9.80;99.90
9828;DHT22;4953;48.952;9.442;2022-09-17T07:09:41;9.80;99.90
9828;DHT22;4953;48.952;9.442;2022-09-17T07:12:08;9.80;99.90
9828;DHT22;4953;48.952;9.442;2022-09-17T07:14:35;9.80;99.90
9828;DHT22;4953;48.952;9.442;2022-09-17T07:17:02;9.80;99.90
9828;DHT22;4953;48.952;9.442;2022-09-17T07:19:29;9.80;99.90
9828;DHT22;4953;48.952;9.442;2022-09-17T07:21:56;9.80;99.90
9828;DHT22;4953;48.952;9.442;2022-09-17T07:24:22;9.80;99.90
9828;DHT22;4953;48.952;9.442;2022-09-17T07:26:51;9.80;99.90
9828;DHT22;4953;48.952;9.442;2022-09-17T07:29:17;9.80;99.90
9828;DHT22;4953;48.952;9.442;2022-09-17T07:31:46;9.70;99.90
9828;DHT22;4953;48.952;9.442;2022-09-17T07:34:12;9.80;99.90
9828;DHT22;4953;48.952;9.442;2022-09-17T07:36:39;9.70;99.90
9828;DHT22;4953;48.952;9.442;2022-09-17T07:39:06;9.70;99.90
9828;DHT22;4953;48.952;9.442;2022-09-17T07:41:34;9.70;99.90
9828;DHT22;4953;48.952;9.442;2022-09-17T07:44:02;9.70;99.90
9828;DHT22;4953;48.952;9.442;2022-09-17T07:46:29;9.60;99.90
9828;DHT22;4953;48.952;9.442;2022-09-17T07:48:55;9.70;99.90
9828;DHT22;4953;48.952;9.442;2022-09-17T07:51:30;9.70;99.90
9828;DHT22;4953;48.952;9.442;2022-09-17T07:53:58;9.70;99.90
9828;DHT22;4953;48.952;9.442;2022-09-17T07:56:27;9.70;99.90
9828;DHT22;4953;48.952;9.442;2022-09-17T07:58:54;9.70;99.90
9828;DHT22;4953;48.952;9.442;2022-09-17T08:01:20;9.70;99.90
9828;DHT22;4953;48.952;9.442;2022-09-17T08:03:48;9.70;99.90
9828;DHT22;4953;48.952;9.442;2022-09-17T08:06:18;9.70;99.90
9828;DHT22;4953;48.952;9.442;2022-09-17T08:08:47;9.70;99.90
9828;DHT22;4953;48.952;9.442;2022-09-17T08:11:15;9.70;99.90
9828;DHT22;4953;48.952;9.442;2022-09-17T08:13:46;9.70;99.90
9828;DHT22;4953;48.952;9.442;2022-09-17T08:16:14;9.80;99.90
9828;DHT22;4953;48.952;9.442;2022-09-17T08:18:41;9.70;99.90
9828;DHT22;4953;48.952;9.442;2022-09-17T08:21:10;9.70;99.90
9828;DHT22;4953;48.952;9.442;2022-09-17T08:23:38;9.70;99.90
9828;DHT22;4953;48.952;9.442;2022-09-17T08:26:10;9.80;99.90
9828;DHT22;4953;48.952;9.442;2022-09-17T08:28:37;9.80;99.90
9828;DHT22;4953;48.952;9.442;2022-09-17T08:31:05;9.80;99.90
9828;DHT22;4953;48.952;9.442;2022-09-17T08:33:34;9.80;99.90
9828;DHT22;4953;48.952;9.442;2022-09-17T08:36:01;9.80;99.90
9828;DHT22;4953;48.952;9.442;2022-09-17T08:38:29;9.80;99.90
9828;DHT22;4953;48.952;9.442;2022-09-17T08:41:05;9.80;99.90
9828;DHT22;4953;48.952;9.442;2022-09-17T08:43:41;9.70;99.90
9828;DHT22;4953;48.952;9.442;2022-09-17T08:46:10;9.70;99.90
9828;DHT22;4953;48.952;9.442;2022-09-17T08:48:40;9.80;99.90
9828;DHT22;4953;48.952;9.442;2022-09-17T08:51:16;9.80;99.90
9828;DHT22;4953;48.952;9.442;2022-09-17T08:53:57;9.80;99.90
9828;DHT22;4953;48.952;9.442;2022-09-17T08:56:27;9.90;99.90
9828;DHT22;4953;48.952;9.442;2022-09-17T08:59:11;10.00;99.90
9828;DHT22;4953;48.952;9.442;2022-09-17T09:01:44;10.00;99.90
9828;DHT22;4953;48.952;9.442;2022-09-17T09:04:38;10.10;99.90
9828;DHT22;4953;48.952;9.442;2022-09-17T09:07:11;10.20;99.90
9828;DHT22;4953;48.952;9.442;2022-09-17T09:09:45;10.20;99.90
9828;DHT22;4953;48.952;9.442;2022-09-17T09:12:17;10.30;99.90
9828;DHT22;4953;48.952;9.442;2022-09-17T09:14:55;10.40;99.90
9828;DHT22;4953;48.952;9.442;2022-09-17T09:17:25;10.50;99.90
9828;DHT22;4953;48.952;9.442;2022-09-17T09:19:55;10.60;99.90
9828;DHT22;4953;48.952;9.442;2022-09-17T09:22:39;10.60;99.90
9828;DHT22;4953;48.952;9.442;2022-09-17T09:25:20;10.70;99.90
9828;DHT22;4953;48.952;9.442;2022-09-17T09:28:01;10.90;99.90
9828;DHT22;4953;48.952;9.442;2022-09-17T09:30:41;11.00;99.90
9828;DHT22;4953;48.952;9.442;2022-09-17T09:33:14;11.10;99.90
9828;DHT22;4953;48.952;9.442;2022-09-17T09:35:43;11.10;99.90
9828;DHT22;4953;48.952;9.442;2022-09-17T09:38:17;11.20;99.90
9828;DHT22;4953;48.952;9.442;2022-09-17T09:40:50;11.20;99.90
9828;DHT22;4953;48.952;9.442;2022-09-17T09:43:22;11.20;99.90
9828;DHT22;4953;48.952;9.442;2022-09-17T09:46:16;11.20;99.90
9828;DHT22;4953;48.952;9.442;2022-09-17T09:48:52;11.20;99.90
9828;DHT22;4953;48.952;9.442;2022-09-17T09:51:31;11.30;99.90
9828;DHT22;4953;48.952;9.442;2022-09-17T09:54:11;11.30;99.90
9828;DHT22;4953;48.952;9.442;2022-09-17T09:56:52;11.30;99.90
9828;DHT22;4953;48.952;9.442;2022-09-17T09:59:20;11.30;99.90
9828;DHT22;4953;48.952;9.442;2022-09-17T10:01:49;11.30;99.90
9828;DHT22;4953;48.952;9.442;2022-09-17T10:04:19;11.30;99.90
9828;DHT22;4953;48.952;9.442;2022-09-17T10:06:47;11.30;99.90
9828;DHT22;4953;48.952;9.442;2022-09-17T10:09:15;11.30;99.90
9828;DHT22;4953;48.952;9.442;2022-09-17T10:12:02;11.30;99.90
9828;DHT22;4953;48.952;9.442;2022-09-17T10:14:31;11.30;99.90
9828;DHT22;4953;48.952;9.442;2022-09-17T10:17:26;11.40;99.90
9828;DHT22;4953;48.952;9.442;2022-09-17T10:20:14;11.60;99.90
9828;DHT22;4953;48.952;9.442;2022-09-17T10:22:43;11.90;99.90
9828;DHT22;4953;48.952;9.442;2022-09-17T10:25:26;12.10;99.90
9828;DHT22;4953;48.952;9.442;2022-09-17T10:27:54;12.20;99.90
9828;DHT22;4953;48.952;9.442;2022-09-17T10:30:22;12.40;99.90
9828;DHT22;4953;48.952;9.442;2022-09-17T10:33:18;12.40;99.90
9828;DHT22;4953;48.952;9.442;2022-09-17T10:35:56;12.40;99.90
9828;DHT22;4953;48.952;9.442;2022-09-17T10:38:28;12.40;99.90
9828;DHT22;4953;48.952;9.442;2022-09-17T10:41:12;12.50;99.90
9828;DHT22;4953;48.952;9.442;2022-09-17T10:43:39;12.50;99.90
9828;DHT22;4953;48.952;9.442;2022-09-17T10:46:13;12.50;99.90
9828;DHT22;4953;48.952;9.442;2022-09-17T10:48:49;12.50;99.90
9828;DHT22;4953;48.952;9.442;2022-09-17T10:51:22;12.40;99.90
9828;DHT22;4953;48.952;9.442;2022-09-17T10:54:08;12.40;99.90
9828;DHT22;4953;48.952;9.442;2022-09-17T10:56:45;12.40;99.90
9828;DHT22;4953;48.952;9.442;2022-09-17T10:59:40;12.40;99.90
9828;DHT22;4953;48.952;9.442;2022-09-17T11:02:36;12.40;99.90
9828;DHT22;4953;48.952;9.442;2022-09-17T11:05:26;12.40;99.90
9828;DHT22;4953;48.952;9.442;2022-09-17T11:08:07;12.40;99.90
9828;DHT22;4953;48.952;9.442;2022-09-17T11:10:41;12.40;99.90
9828;DHT22;4953;48.952;9.442;2022-09-17T11:13:18;12.40;99.90
9828;DHT22;4953;48.952;9.442;2022-09-17T11:16:01;12.40;99.90
9828;DHT22;4953;48.952;9.442;2022-09-17T11:18:39;12.40;99.90
9828;DHT22;4953;48.952;9.442;2022-09-17T11:21:24;12.40;99.90
9828;DHT22;4953;48.952;9.442;2022-09-17T11:26:54;12.00;99.90
9828;DHT22;4953;48.952;9.442;2022-09-17T11:29:39;11.80;99.90
9828;DHT22;4953;48.952;9.442;2022-09-17T11:32:20;11.80;99.90
9828;DHT22;4953;48.952;9.442;2022-09-17T11:34:57;11.80;99.90
9828;DHT22;4953;48.952;9.442;2022-09-17T11:37:31;11.70;99.90
9828;DHT22;4953;48.952;9.442;2022-09-17T11:40:01;11.80;99.90
9828;DHT22;4953;48.952;9.442;2022-09-17T11:42:31;11.80;99.90
9828;DHT22;4953;48.952;9.442;2022-09-17T11:45:11;11.80;99.90
9828;DHT22;4953;48.952;9.442;2022-09-17T11:47:43;11.70;99.90
9828;DHT22;4953;48.952;9.442;2022-09-17T11:50:17;11.70;99.90
9828;DHT22;4953;48.952;9.442;2022-09-17T11:52:58;11.60;99.90
9828;DHT22;4953;48.952;9.442;2022-09-17T11:55:31;11.60;99.90
9828;DHT22;4953;48.952;9.442;2022-09-17T11:58:04;11.60;99.90
9828;DHT22;4953;48.952;9.442;2022-09-17T12:00:39;11.60;99.90
9828;DHT22;4953;48.952;9.442;2022-09-17T12:03:12;11.60;99.90
9828;DHT22;4953;48.952;9.442;2022-09-17T12:05:45;11.70;99.90
9828;DHT22;4953;48.952;9.442;2022-09-17T12:08:18;11.90;99.90
9828;DHT22;4953;48.952;9.442;2022-09-17T12:10:50;12.00;99.90
9828;DHT22;4953;48.952;9.442;2022-09-17T12:13:26;12.10;99.90
9828;DHT22;4953;48.952;9.442;2022-09-17T12:16:12;12.30;99.90
9828;DHT22;4953;48.952;9.442;2022-09-17T12:18:52;12.40;99.90
9828;DHT22;4953;48.952;9.442;2022-09-17T12:21:24;12.70;99.90
9828;DHT22;4953;48.952;9.442;2022-09-17T12:23:56;13.10;99.90
9828;DHT22;4953;48.952;9.442;2022-09-17T12:26:53;13.40;99.90
9828;DHT22;4953;48.952;9.442;2022-09-17T12:29:34;13.70;99.90
9828;DHT22;4953;48.952;9.442;2022-09-17T12:32:08;13.70;99.90
9828;DHT22;4953;48.952;9.442;2022-09-17T12:34:45;13.70;99.90
9828;DHT22;4953;48.952;9.442;2022-09-17T12:37:20;13.70;99.90
9828;DHT22;4953;48.952;9.442;2022-09-17T12:40:04;13.60;99.90
9828;DHT22;4953;48.952;9.442;2022-09-17T12:42:44;13.40;99.90
9828;DHT22;4953;48.952;9.442;2022-09-17T12:45:26;13.40;99.90
9828;DHT22;4953;48.952;9.442;2022-09-17T12:51:06;13.10;99.90
9828;DHT22;4953;48.952;9.442;2022-09-17T12:53:45;13.00;99.90
9828;DHT22;4953;48.952;9.442;2022-09-17T12:56:28;12.90;99.90
9828;DHT22;4953;48.952;9.442;2022-09-17T12:59:04;13.00;99.90
9828;DHT22;4953;48.952;9.442;2022-09-17T13:01:40;13.10;99.90
9828;DHT22;4953;48.952;9.442;2022-09-17T13:04:22;13.20;99.90
9828;DHT22;4953;48.952;9.442;2022-09-17T13:07:19;13.30;99.90
9828;DHT22;4953;48.952;9.442;2022-09-17T13:10:24;13.40;99.90
9828;DHT22;4953;48.952;9.442;2022-09-17T13:13:03;13.50;99.90
9828;DHT22;4953;48.952;9.442;2022-09-17T13:15:42;13.60;99.90
9828;DHT22;4953;48.952;9.442;2022-09-17T13:18:16;13.70;99.90
9828;DHT22;4953;48.952;9.442;2022-09-17T13:20:57;13.60;99.90
9828;DHT22;4953;48.952;9.442;2022-09-17T13:23:37;13.70;99.90
9828;DHT22;4953;48.952;9.442;2022-09-17T13:26:06;13.70;99.90
9828;DHT22;4953;48.952;9.442;2022-09-17T13:28:42;13.50;99.90
9828;DHT22;4953;48.952;9.442;2022-09-17T13:31:10;13.40;99.90
9828;DHT22;4953;48.952;9.442;2022-09-17T13:33:55;13.30;99.90
9828;DHT22;4953;48.952;9.442;2022-09-17T13:36:42;13.30;99.90
9828;DHT22;4953;48.952;9.442;2022-09-17T13:39:43;13.30;99.90
9828;DHT22;4953;48.952;9.442;2022-09-17T13:42:16;13.40;99.90
9828;DHT22;4953;48.952;9.442;2022-09-17T13:44:48;13.50;99.90
9828;DHT22;4953;48.952;9.442;2022-09-17T13:47:24;13.60;99.90
9828;DHT22;4953;48.952;9.442;2022-09-17T13:49:56;13.70;99.90
9828;DHT22;4953;48.952;9.442;2022-09-17T13:52:42;13.80;99.90
9828;DHT22;4953;48.952;9.442;2022-09-17T13:55:33;13.90;99.90
9828;DHT22;4953;48.952;9.442;2022-09-17T13:58:02;14.00;99.90
9828;DHT22;4953;48.952;9.442;2022-09-17T14:00:49;14.10;99.90
9828;DHT22;4953;48.952;9.442;2022-09-17T14:03:50;14.30;99.90
9828;DHT22;4953;48.952;9.442;2022-09-17T14:06:49;14.40;99.90
9828;DHT22;4953;48.952;9.442;2022-09-17T14:09:48;14.30;99.90
9828;DHT22;4953;48.952;9.442;2022-09-17T14:12:53;14.20;99.90
9828;DHT22;4953;48.952;9.442;2022-09-17T14:15:56;14.20;99.90
9828;DHT22;4953;48.952;9.442;2022-09-17T14:18:56;14.20;99.90
9828;DHT22;4953;48.952;9.442;2022-09-17T14:21:29;14.30;99.90
9828;DHT22;4953;48.952;9.442;2022-09-17T14:23:58;14.50;99.90
9828;DHT22;4953;48.952;9.442;2022-09-17T14:32:26;14.40;99.90
9828;DHT22;4953;48.952;9.442;2022-09-17T14:34:59;14.30;99.90
9828;DHT22;4953;48.952;9.442;2022-09-17T14:37:27;14.30;99.90
9828;DHT22;4953;48.952;9.442;2022-09-17T14:39:54;14.50;99.90
9828;DHT22;4953;48.952;9.442;2022-09-17T14:42:23;14.70;99.90
9828;DHT22;4953;48.952;9.442;2022-09-17T14:44:56;14.90;99.90
9828;DHT22;4953;48.952;9.442;2022-09-17T14:47:25;15.00;99.90
9828;DHT22;4953;48.952;9.442;2022-09-17T14:49:53;15.10;99.90
9828;DHT22;4953;48.952;9.442;2022-09-17T14:52:26;15.10;99.90
9828;DHT22;4953;48.952;9.442;2022-09-17T14:55:10;15.20;99.90
9828;DHT22;4953;48.952;9.442;2022-09-17T14:57:37;15.20;99.90
9828;DHT22;4953;48.952;9.442;2022-09-17T15:00:05;15.20;99.90
9828;DHT22;4953;48.952;9.442;2022-09-17T15:02:36;15.40;99.90
9828;DHT22;4953;48.952;9.442;2022-09-17T15:05:17;15.60;99.90
9828;DHT22;4953;48.952;9.442;2022-09-17T15:07:45;15.70;99.90
9828;DHT22;4953;48.952;9.442;2022-09-17T15:10:18;15.70;99.90
9828;DHT22;4953;48.952;9.442;2022-09-17T15:12:46;15.90;99.90
9828;DHT22;4953;48.952;9.442;2022-09-17T15:15:22;16.10;99.90
9828;DHT22;4953;48.952;9.442;2022-09-17T15:17:51;16.30;99.90
9828;DHT22;4953;48.952;9.442;2022-09-17T15:20:20;16.40;99.90
9828;DHT22;4953;48.952;9.442;2022-09-17T15:22:53;16.60;99.90
9828;DHT22;4953;48.952;9.442;2022-09-17T15:25:22;16.60;99.90
9828;DHT22;4953;48.952;9.442;2022-09-17T15:27:53;16.50;99.90
9828;DHT22;4953;48.952;9.442;2022-09-17T15:30:22;16.60;99.90
9828;DHT22;4953;48.952;9.442;2022-09-17T15:32:52;16.70;99.90
9828;DHT22;4953;48.952;9.442;2022-09-17T15:35:22;16.80;99.90
9828;DHT22;4953;48.952;9.442;2022-09-17T15:37:53;16.70;99.90
9828;DHT22;4953;48.952;9.442;2022-09-17T15:40:26;16.70;99.90
9828;DHT22;4953;48.952;9.442;2022-09-17T15:43:02;16.70;99.90
9828;DHT22;4953;48.952;9.442;2022-09-17T15:45:30;16.70;99.90
9828;DHT22;4953;48.952;9.442;2022-09-17T15:48:03;16.60;99.90
9828;DHT22;4953;48.952;9.442;2022-09-17T15:50:31;16.40;99.90
9828;DHT22;4953;48.952;9.442;2022-09-17T15:53:12;16.20;99.90
9828;DHT22;4953;48.952;9.442;2022-09-17T15:55:40;15.90;99.90
9828;DHT22;4953;48.952;9.442;2022-09-17T15:58:24;15.80;99.90
9828;DHT22;4953;48.952;9.442;2022-09-17T16:04:20;15.40;99.90
9828;DHT22;4953;48.952;9.442;2022-09-17T16:06:50;15.10;99.90
9828;DHT22;4953;48.952;9.442;2022-09-17T16:09:43;15.10;99.90
9828;DHT22;4953;48.952;9.442;2022-09-17T16:12:13;14.80;99.90
9828;DHT22;4953;48.952;9.442;2022-09-17T16:14:49;14.70;99.90
9828;DHT22;4953;48.952;9.442;2022-09-17T16:17:27;14.70;99.90
9828;DHT22;4953;48.952;9.442;2022-09-17T16:19:59;14.90;99.90
9828;DHT22;4953;48.952;9.442;2022-09-17T16:22:26;14.90;99.90
9828;DHT22;4953;48.952;9.442;2022-09-17T16:24:54;14.90;99.90
9828;DHT22;4953;48.952;9.442;2022-09-17T16:27:24;14.80;99.90
9828;DHT22;4953;48.952;9.442;2022-09-17T16:29:55;14.70;99.90
9828;DHT22;4953;48.952;9.442;2022-09-17T16:32:23;14.60;99.90
9828;DHT22;4953;48.952;9.442;2022-09-17T16:34:50;14.40;99.90
9828;DHT22;4953;48.952;9.442;2022-09-17T16:37:18;14.30;99.90
9828;DHT22;4953;48.952;9.442;2022-09-17T16:39:45;14.10;99.90
9828;DHT22;4953;48.952;9.442;2022-09-17T16:42:12;14.10;99.90
9828;DHT22;4953;48.952;9.442;2022-09-17T16:44:38;14.00;99.90
9828;DHT22;4953;48.952;9.442;2022-09-17T16:47:05;13.90;99.90
9828;DHT22;4953;48.952;9.442;2022-09-17T16:49:32;13.90;99.90
9828;DHT22;4953;48.952;9.442;2022-09-17T16:51:59;13.80;99.90
9828;DHT22;4953;48.952;9.442;2022-09-17T16:54:27;13.80;99.90
9828;DHT22;4953;48.952;9.442;2022-09-17T16:56:54;13.70;99.90
9828;DHT22;4953;48.952;9.442;2022-09-17T16:59:21;13.70;99.90
9828;DHT22;4953;48.952;9.442;2022-09-17T17:01:48;13.60;99.90
9828;DHT22;4953;48.952;9.442;2022-09-17T17:04:14;13.70;99.90
9828;DHT22;4953;48.952;9.442;2022-09-17T17:06:42;13.60;99.90
9828;DHT22;4953;48.952;9.442;2022-09-17T17:09:09;13.60;99.90
9828;DHT22;4953;48.952;9.442;2022-09-17T17:11:38;13.60;99.90
9828;DHT22;4953;48.952;9.442;2022-09-17T17:14:04;13.50;99.90
9828;DHT22;4953;48.952;9.442;2022-09-17T17:16:31;13.50;99.90
9828;DHT22;4953;48.952;9.442;2022-09-17T17:18:58;13.50;99.90
9828;DHT22;4953;48.952;9.442;2022-09-17T17:21:25;13.40;99.90
9828;DHT22;4953;48.952;9.442;2022-09-17T17:23:52;13.40;99.90
9828;DHT22;4953;48.952;9.442;2022-09-17T17:26:19;13.30;99.90
9828;DHT22;4953;48.952;9.442;2022-09-17T17:28:47;13.30;99.90
9828;DHT22;4953;48.952;9.442;2022-09-17T17:31:14;13.20;99.90
9828;DHT22;4953;48.952;9.442;2022-09-17T17:33:40;13.20;99.90
9828;DHT22;4953;48.952;9.442;2022-09-17T17:36:09;13.10;99.90
9828;DHT22;4953;48.952;9.442;2022-09-17T17:38:37;13.00;99.90
9828;DHT22;4953;48.952;9.442;2022-09-17T17:41:06;12.90;99.90
9828;DHT22;4953;48.952;9.442;2022-09-17T17:43:33;12.70;99.90
9828;DHT22;4953;48.952;9.442;2022-09-17T17:46:04;12.60;99.90
9828;DHT22;4953;48.952;9.442;2022-09-17T17:48:31;12.40;99.90
9828;DHT22;4953;48.952;9.442;2022-09-17T17:51:00;12.30;99.90
9828;DHT22;4953;48.952;9.442;2022-09-17T17:53:28;12.20;99.90
9828;DHT22;4953;48.952;9.442;2022-09-17T17:55:57;12.10;99.90
9828;DHT22;4953;48.952;9.442;2022-09-17T17:58:25;12.00;99.90
9828;DHT22;4953;48.952;9.442;2022-09-17T18:00:51;12.00;99.90
9828;DHT22;4953;48.952;9.442;2022-09-17T18:03:20;11.90;99.90
9828;DHT22;4953;48.952;9.442;2022-09-17T18:05:50;11.80;99.90
9828;DHT22;4953;48.952;9.442;2022-09-17T18:08:17;11.80;99.90
9828;DHT22;4953;48.952;9.442;2022-09-17T18:10:50;11.80;99.90
9828;DHT22;4953;48.952;9.442;2022-09-17T18:13:17;11.80;99.90
9828;DHT22;4953;48.952;9.442;2022-09-17T18:15:50;11.60;99.90
9828;DHT22;4953;48.952;9.442;2022-09-17T18:18:17;11.50;99.90
9828;DHT22;4953;48.952;9.442;2022-09-17T18:20:45;11.50;99.90
9828;DHT22;4953;48.952;9.442;2022-09-17T18:23:12;11.50;99.90
9828;DHT22;4953;48.952;9.442;2022-09-17T18:25:39;11.50;99.90
9828;DHT22;4953;48.952;9.442;2022-09-17T18:28:06;11.50;99.90
9828;DHT22;4953;48.952;9.442;2022-09-17T18:30:35;11.40;99.90
9828;DHT22;4953;48.952;9.442;2022-09-17T18:33:01;11.40;99.90
9828;DHT22;4953;48.952;9.442;2022-09-17T18:35:32;11.40;99.90
9828;DHT22;4953;48.952;9.442;2022-09-17T18:38:02;11.50;99.90
9828;DHT22;4953;48.952;9.442;2022-09-17T18:40:30;11.40;99.90
9828;DHT22;4953;48.952;9.442;2022-09-17T18:42:57;11.50;99.90
9828;DHT22;4953;48.952;9.442;2022-09-17T18:45:23;11.40;99.90
9828;DHT22;4953;48.952;9.442;2022-09-17T18:47:50;11.40;99.90
9828;DHT22;4953;48.952;9.442;2022-09-17T18:50:17;11.40;99.90
9828;DHT22;4953;48.952;9.442;2022-09-17T18:52:44;11.40;99.90
9828;DHT22;4953;48.952;9.442;2022-09-17T18:55:13;11.40;99.90
9828;DHT22;4953;48.952;9.442;2022-09-17T18:57:39;11.40;99.90
9828;DHT22;4953;48.952;9.442;2022-09-17T19:00:08;11.40;99.90
9828;DHT22;4953;48.952;9.442;2022-09-17T19:02:36;11.40;99.90
9828;DHT22;4953;48.952;9.442;2022-09-17T19:05:03;11.50;99.90
9828;DHT22;4953;48.952;9.442;2022-09-17T19:07:30;11.50;99.90
9828;DHT22;4953;48.952;9.442;2022-09-17T19:09:58;11.60;99.90
9828;DHT22;4953;48.952;9.442;2022-09-17T19:12:29;11.60;99.90
9828;DHT22;4953;48.952;9.442;2022-09-17T19:14:56;11.60;99.90
9828;DHT22;4953;48.952;9.442;2022-09-17T19:17:23;11.60;99.90
9828;DHT22;4953;48.952;9.442;2022-09-17T19:19:50;11.60;99.90
9828;DHT22;4953;48.952;9.442;2022-09-17T19:22:17;11.70;99.90
9828;DHT22;4953;48.952;9.442;2022-09-17T19:24:46;11.70;99.90
9828;DHT22;4953;48.952;9.442;2022-09-17T19:27:13;11.70;99.90
9828;DHT22;4953;48.952;9.442;2022-09-17T19:29:41;11.70;99.90
9828;DHT22;4953;48.952;9.442;2022-09-17T19:32:08;11.60;99.90
9828;DHT22;4953;48.952;9.442;2022-09-17T19:34:35;11.60;99.90
9828;DHT22;4953;48.952;9.442;2022-09-17T19:37:07;11.60;99.90
9828;DHT22;4953;48.952;9.442;2022-09-17T19:39:34;11.60;99.90
9828;DHT22;4953;48.952;9.442;2022-09-17T19:42:01;11.60;99.90
9828;DHT22;4953;48.952;9.442;2022-09-17T19:44:28;11.70;99.90
9828;DHT22;4953;48.952;9.442;2022-09-17T19:46:56;11.80;99.90
9828;DHT22;4953;48.952;9.442;2022-09-17T19:49:23;11.80;99.90
9828;DHT22;4953;48.952;9.442;2022-09-17T19:51:50;11.90;99.90
9828;DHT22;4953;48.952;9.442;2022-09-17T19:54:17;11.90;99.90
9828;DHT22;4953;48.952;9.442;2022-09-17T19:56:43;11.80;99.90
9828;DHT22;4953;48.952;9.442;2022-09-17T19:59:11;11.80;99.90
9828;DHT22;4953;48.952;9.442;2022-09-17T20:01:37;11.80;99.90
9828;DHT22;4953;48.952;9.442;2022-09-17T20:04:06;11.70;99.90
9828;DHT22;4953;48.952;9.442;2022-09-17T20:06:34;11.70;99.90
9828;DHT22;4953;48.952;9.442;2022-09-17T20:09:01;11.60;99.90
9828;DHT22;4953;48.952;9.442;2022-09-17T20:11:28;11.50;99.90
9828;DHT22;4953;48.952;9.442;2022-09-17T20:13:56;11.50;99.90
9828;DHT22;4953;48.952;9.442;2022-09-17T20:16:23;11.40;99.90
9828;DHT22;4953;48.952;9.442;2022-09-17T20:18:50;11.40;99.90
9828;DHT22;4953;48.952;9.442;2022-09-17T20:21:19;11.50;99.90
9828;DHT22;4953;48.952;9.442;2022-09-17T20:23:46;11.40;99.90
9828;DHT22;4953;48.952;9.442;2022-09-17T20:26:14;11.50;99.90
9828;DHT22;4953;48.952;9.442;2022-09-17T20:28:42;11.40;99.90
9828;DHT22;4953;48.952;9.442;2022-09-17T20:31:11;11.40;99.90
9828;DHT22;4953;48.952;9.442;2022-09-17T20:33:39;11.40;99.90
9828;DHT22;4953;48.952;9.442;2022-09-17T20:36:08;11.30;99.90
9828;DHT22;4953;48.952;9.442;2022-09-17T20:38:37;11.30;99.90
9828;DHT22;4953;48.952;9.442;2022-09-17T20:41:06;11.30;99.90
9828;DHT22;4953;48.952;9.442;2022-09-17T20:43:34;11.30;99.90
9828;DHT22;4953;48.952;9.442;2022-09-17T20:46:03;11.30;99.90
9828;DHT22;4953;48.952;9.442;2022-09-17T20:48:31;11.40;99.90
9828;DHT22;4953;48.952;9.442;2022-09-17T20:50:59;11.30;99.90